Hyannis, NE (69350)

10:10 PM MDT on September 17, 2014 (GMT -0600)
Alliance Municipal | Change Station
CLOSE
Current Station
Airport
Location: Alliance,
Elevation: 3930 ft
Nearby Weather Stations

Elev 3930 ft 42.06 °N, 102.80 °W | Updated 17 minutes ago

Partly Cloudy
Partly Cloudy
60 °F
Feels Like 60 °F
N
9
Wind Variable Wind from SSE

Today
High -- | Low -- °F
--% Chance of Precip.
Yesterday
High -- | Low -- °F
Precip. -- in
6:29 AM 6:52 PM
Waning Crescent, 30% visible
Pressure 29.86 in
Visibility 10.0 miles
Clouds Clear
Dew Point 52 °F
Humidity 75%
Rainfall 0.00 in
Snow Depth Not available.
UV 0 out of 12
Pollen 5.20 out of 12
Air Quality Not available.
Flu Activity Not available.
METAR KAIA 180353Z AUTO 15008KT 10SM CLR 16/11 A2997 RMK AO2 SLP112 T01560111

More Conditions Fewer Conditions

Pressure 29.86 in
Visibility 10.0 miles
Clouds Clear
Dew Point 52 °F
Humidity 75%
Rainfall 0.00 in
Snow Depth Not available.
UV 0 out of 12
Pollen 5.20 out of 12
Air Quality Not available.
Flu Activity Not available.
METAR KAIA 180353Z AUTO 15008KT 10SM CLR 16/11 A2997 RMK AO2 SLP112 T01560111

More Conditions Fewer Conditions

10-Day Weather Forecast

Almanac

Astronomy

Sep. 17, 2014 Rise Set
Actual Time 6:29 AM MDT 6:52 PM MDT
Civil Twilight 6:01 AM MDT 7:20 PM MDT
Nautical Twilight 5:28 AM MDT 7:53 PM MDT
Astronomical Twilight 4:54 AM MDT 8:27 PM MDT
Moon 12:26 AM MDT (9/17) 3:08 PM MDT (9/17)
Length of Visible Light 13h 19m
Length of Day
12h 23m
Tomorrow will be 2m 48s shorter.
Waning Crescent, 30% of the Moon is Illuminated
Sep 18
Waning Crescent
Sep 24
New
Oct 1
First Quarter
Oct 8
Full
Oct 15
Last Quarter

Today's Extremes

State Highs State Lows

Community

WunderPhotos

Upload Photos

1,754,290 photos uploaded!

Nearby

Snow Depth

Station Depth Elevation
No new snow has been reported.

Earthquake Activity

City Distance Mag. Time & Date
No recent earthquake activity has been reported nearby.
Minimum magnitude displayed is 2.5.

Coastal Water Temperatures

Place Temperature
No Stations Reporting

Nearby Weather Stations